createdAt,value
2018-12-15T00:00:15.974Z,2.10
2018-12-15T00:02:43.594Z,2.10
2018-12-15T00:05:11.934Z,2.10
2018-12-15T00:07:39.506Z,2.10
2018-12-15T00:10:08.098Z,2.10
2018-12-15T00:12:35.668Z,2.10
2018-12-15T00:15:03.242Z,2.10
2018-12-15T00:17:30.835Z,2.20
2018-12-15T00:19:58.409Z,2.30
2018-12-15T00:22:26.615Z,2.20
2018-12-15T00:24:54.186Z,2.20
2018-12-15T00:27:21.760Z,2.20
2018-12-15T00:29:50.125Z,2.20
2018-12-15T00:32:17.695Z,2.20
2018-12-15T00:34:45.596Z,2.20
2018-12-15T00:37:13.165Z,2.10
2018-12-15T00:39:40.886Z,2.10
2018-12-15T00:42:08.941Z,2.10
2018-12-15T00:44:36.516Z,2.10
2018-12-15T00:47:04.091Z,2.10
2018-12-15T00:49:32.460Z,2.10
2018-12-15T00:52:00.051Z,2.10
2018-12-15T00:54:27.652Z,2.10
2018-12-15T00:56:55.227Z,2.10
2018-12-15T00:59:22.796Z,2.00
2018-12-15T01:01:50.394Z,2.00
2018-12-15T01:04:18.051Z,2.00
2018-12-15T01:06:46.399Z,1.90
2018-12-15T01:09:13.965Z,2.00
2018-12-15T01:11:41.540Z,2.00
2018-12-15T01:14:09.913Z,2.00
2018-12-15T01:16:37.492Z,1.90
2018-12-15T01:19:05.113Z,2.00
2018-12-15T01:21:32.700Z,2.00
2018-12-15T01:24:00.283Z,2.00
2018-12-15T01:26:28.946Z,2.10
2018-12-15T01:28:56.517Z,2.20
2018-12-15T01:31:24.910Z,2.20
2018-12-15T01:33:52.935Z,2.20
2018-12-15T01:36:20.510Z,2.20
2018-12-15T01:38:48.118Z,2.20
2018-12-15T01:41:15.700Z,2.20
2018-12-15T01:43:43.601Z,2.10
2018-12-15T01:46:11.179Z,2.10
2018-12-15T01:48:38.764Z,2.10
2018-12-15T01:51:06.379Z,2.00
2018-12-15T01:53:33.951Z,2.00
2018-12-15T01:56:01.864Z,2.00
2018-12-15T01:58:29.412Z,2.00
2018-12-15T02:00:57.752Z,2.00
2018-12-15T02:03:25.343Z,2.00
2018-12-15T02:05:53.688Z,2.20
2018-12-15T02:08:21.568Z,2.10
2018-12-15T02:10:49.146Z,2.20
2018-12-15T02:13:16.720Z,2.20
2018-12-15T02:15:45.563Z,2.10
2018-12-15T02:18:13.155Z,2.10
2018-12-15T02:20:40.733Z,2.10
2018-12-15T02:23:09.506Z,2.00
2018-12-15T02:25:37.085Z,2.00
2018-12-15T02:28:04.657Z,2.00
2018-12-15T02:30:32.263Z,2.00
2018-12-15T02:32:59.839Z,2.00
2018-12-15T02:35:27.517Z,1.90
2018-12-15T02:37:55.097Z,1.90
2018-12-15T02:40:23.442Z,1.90
2018-12-15T02:42:51.048Z,1.90
2018-12-15T02:45:18.626Z,2.00
2018-12-15T02:47:46.525Z,1.90
2018-12-15T02:50:14.110Z,1.90
2018-12-15T02:52:41.696Z,1.90
2018-12-15T02:55:09.321Z,1.90
2018-12-15T02:57:36.927Z,1.90
2018-12-15T03:00:05.288Z,1.90
2018-12-15T03:02:32.858Z,1.90
2018-12-15T03:05:00.433Z,1.90
2018-12-15T03:07:28.038Z,1.90
2018-12-15T03:09:55.617Z,1.90
2018-12-15T03:12:23.737Z,1.90
2018-12-15T03:14:51.313Z,1.90
2018-12-15T03:17:18.885Z,2.00
2018-12-15T03:19:46.485Z,2.00
2018-12-15T03:22:14.061Z,2.10
2018-12-15T03:24:41.678Z,2.00
2018-12-15T03:27:09.255Z,2.00
2018-12-15T03:29:36.836Z,1.90
2018-12-15T03:32:04.433Z,1.90
2018-12-15T03:34:32.051Z,1.90
2018-12-15T03:36:59.613Z,1.90
2018-12-15T03:39:27.229Z,1.90
2018-12-15T03:41:55.830Z,1.90
2018-12-15T03:44:23.482Z,1.90
2018-12-15T03:46:51.063Z,1.90
2018-12-15T03:49:19.395Z,1.90
2018-12-15T03:51:47.766Z,2.00
2018-12-15T03:54:16.117Z,2.00
2018-12-15T03:56:43.751Z,2.00
2018-12-15T03:59:11.331Z,2.00
2018-12-15T04:01:38.943Z,2.10
2018-12-15T04:04:06.529Z,2.10
2018-12-15T04:06:34.103Z,2.10
2018-12-15T04:09:01.711Z,2.20
2018-12-15T04:11:30.063Z,2.10
2018-12-15T04:13:57.678Z,2.10
2018-12-15T04:16:25.263Z,2.10
2018-12-15T04:18:52.861Z,2.00
2018-12-15T04:21:20.454Z,2.00
2018-12-15T04:23:48.045Z,2.00
2018-12-15T04:26:15.691Z,2.00
2018-12-15T04:28:43.274Z,2.00
2018-12-15T04:31:10.852Z,2.00
2018-12-15T04:33:38.459Z,2.00
2018-12-15T04:36:14.825Z,1.90
2018-12-15T04:38:42.442Z,1.80
2018-12-15T04:41:10.028Z,1.80
2018-12-15T04:43:37.608Z,1.70
2018-12-15T04:46:05.247Z,1.70
2018-12-15T04:48:32.915Z,1.70
2018-12-15T04:51:00.550Z,1.80
2018-12-15T04:53:28.132Z,1.90
2018-12-15T04:55:55.720Z,1.80
2018-12-15T04:58:23.328Z,1.80
2018-12-15T05:00:50.898Z,2.00
2018-12-15T05:03:18.527Z,2.00
2018-12-15T05:05:46.098Z,2.00
2018-12-15T05:08:13.685Z,1.90
2018-12-15T05:10:41.279Z,1.80
2018-12-15T05:13:09.619Z,1.80
2018-12-15T05:15:37.240Z,1.80
2018-12-15T05:18:05.600Z,1.70
2018-12-15T05:20:33.945Z,1.70
2018-12-15T05:23:01.585Z,1.70
2018-12-15T05:25:29.891Z,1.70
2018-12-15T05:27:57.510Z,1.70
2018-12-15T05:30:25.088Z,1.70
2018-12-15T05:32:52.679Z,1.70
2018-12-15T05:35:20.277Z,1.70
2018-12-15T05:37:47.854Z,1.80
2018-12-15T05:40:15.744Z,1.90
2018-12-15T05:42:43.330Z,1.90
2018-12-15T05:45:10.916Z,1.90
2018-12-15T05:47:38.523Z,1.90
2018-12-15T05:50:06.111Z,2.00
2018-12-15T05:52:33.984Z,2.00
2018-12-15T05:55:01.562Z,1.90
2018-12-15T05:57:29.141Z,1.90
2018-12-15T05:59:56.738Z,1.80
2018-12-15T06:02:24.316Z,1.80
2018-12-15T06:04:51.967Z,1.70
2018-12-15T06:07:19.549Z,1.70
2018-12-15T06:09:47.135Z,1.70
2018-12-15T06:12:14.736Z,1.60
2018-12-15T06:14:42.320Z,1.60
2018-12-15T06:17:09.960Z,1.60
2018-12-15T06:19:37.534Z,1.60
2018-12-15T06:22:05.135Z,1.50
2018-12-15T06:24:32.739Z,1.50
2018-12-15T06:27:00.324Z,1.50
2018-12-15T06:29:28.189Z,1.40
2018-12-15T06:31:55.757Z,1.40
2018-12-15T06:34:23.336Z,1.40
2018-12-15T06:36:51.318Z,1.40
2018-12-15T06:39:18.889Z,1.40
2018-12-15T06:41:46.482Z,1.30
2018-12-15T06:44:14.427Z,1.30
2018-12-15T06:46:42.007Z,1.40
2018-12-15T06:49:09.592Z,1.40
2018-12-15T06:51:37.504Z,1.60
2018-12-15T06:54:05.076Z,1.70
2018-12-15T06:56:32.654Z,1.70
2018-12-15T06:59:01.048Z,1.60
2018-12-15T07:01:28.628Z,1.60
2018-12-15T07:03:56.207Z,1.60
2018-12-15T07:06:24.099Z,1.60
2018-12-15T07:08:51.688Z,1.50
2018-12-15T07:11:20.119Z,1.50
2018-12-15T07:13:47.992Z,1.50
2018-12-15T07:16:15.579Z,1.70
2018-12-15T07:18:44.877Z,1.70
2018-12-15T07:21:11.016Z,1.70
2018-12-15T07:23:38.585Z,1.70
2018-12-15T07:26:06.926Z,1.70
2018-12-15T07:28:34.888Z,1.60
2018-12-15T07:31:02.483Z,1.70
2018-12-15T07:33:30.053Z,1.70
2018-12-15T07:35:57.673Z,1.70
2018-12-15T07:38:25.269Z,1.80
2018-12-15T07:40:53.656Z,1.90
2018-12-15T07:43:21.238Z,1.90
2018-12-15T07:45:48.823Z,2.00
2018-12-15T07:48:17.569Z,2.00
2018-12-15T07:50:45.155Z,2.00
2018-12-15T07:53:13.178Z,1.90
2018-12-15T07:55:40.801Z,1.80
2018-12-15T07:58:08.377Z,1.80
2018-12-15T08:00:35.955Z,1.70
2018-12-15T08:03:03.953Z,1.60
2018-12-15T08:05:31.528Z,1.60
2018-12-15T08:08:00.803Z,1.60
2018-12-15T08:10:28.440Z,1.50
2018-12-15T08:12:58.581Z,1.60
2018-12-15T08:15:26.192Z,1.60
2018-12-15T08:17:53.819Z,1.60
2018-12-15T08:20:21.417Z,1.60
2018-12-15T08:22:49.026Z,1.70
2018-12-15T08:25:17.022Z,1.70
2018-12-15T08:27:44.605Z,1.70
2018-12-15T08:30:12.960Z,1.70
2018-12-15T08:32:41.938Z,1.70
2018-12-15T08:35:09.528Z,1.70
2018-12-15T08:37:37.246Z,1.80
2018-12-15T08:40:05.287Z,1.80
2018-12-15T08:42:35.573Z,1.70
2018-12-15T08:45:03.531Z,1.70
2018-12-15T08:47:31.766Z,1.70
2018-12-15T08:49:59.352Z,1.80
2018-12-15T08:52:26.935Z,1.70
2018-12-15T08:54:54.980Z,1.70
2018-12-15T08:57:25.459Z,1.60
2018-12-15T08:59:53.059Z,1.70
2018-12-15T09:02:20.669Z,1.70
2018-12-15T09:04:48.387Z,1.70
2018-12-15T09:07:16.660Z,1.70
2018-12-15T09:09:43.589Z,1.70
2018-12-15T09:12:12.030Z,1.60
2018-12-15T09:14:42.703Z,1.60
2018-12-15T09:17:11.053Z,1.60
2018-12-15T09:19:38.729Z,1.60
2018-12-15T09:22:11.605Z,1.60
2018-12-15T09:24:34.670Z,1.60
2018-12-15T09:27:02.757Z,1.50
2018-12-15T09:29:31.101Z,1.50
2018-12-15T09:31:58.677Z,1.40
2018-12-15T09:34:26.298Z,1.40
2018-12-15T09:36:54.085Z,1.40
2018-12-15T09:39:21.467Z,1.50
2018-12-15T09:41:49.849Z,1.50
2018-12-15T09:44:17.433Z,1.70
2018-12-15T09:46:47.229Z,1.80
2018-12-15T09:49:17.921Z,1.80
2018-12-15T09:51:42.796Z,1.80
2018-12-15T09:54:10.369Z,1.80
2018-12-15T09:56:38.393Z,1.80
2018-12-15T09:59:05.995Z,1.80
2018-12-15T10:01:33.652Z,1.80
2018-12-15T10:04:01.231Z,1.80
2018-12-15T10:06:28.808Z,1.80
2018-12-15T10:08:56.454Z,1.80
2018-12-15T10:11:24.030Z,1.80
2018-12-15T10:13:51.603Z,1.80
2018-12-15T10:16:19.550Z,1.70
2018-12-15T10:18:47.144Z,1.70
2018-12-15T10:21:14.722Z,1.70
2018-12-15T10:23:43.148Z,1.70
2018-12-15T10:26:10.729Z,1.60
2018-12-15T10:28:38.302Z,1.60
2018-12-15T10:31:24.310Z,1.60
2018-12-15T10:33:51.857Z,1.70
2018-12-15T10:36:19.440Z,1.80
2018-12-15T10:38:47.331Z,1.80
2018-12-15T10:41:14.943Z,1.80
2018-12-15T10:43:42.513Z,1.80
2018-12-15T10:46:10.132Z,1.80
2018-12-15T10:48:38.035Z,1.80
2018-12-15T10:51:05.622Z,1.90
2018-12-15T10:53:33.202Z,2.10
2018-12-15T10:56:01.142Z,2.30
2018-12-15T10:58:28.724Z,2.30
2018-12-15T11:00:58.878Z,2.30
2018-12-15T11:03:26.504Z,2.30
2018-12-15T11:05:54.112Z,2.30
2018-12-15T11:08:21.648Z,2.30
2018-12-15T11:10:49.301Z,2.30
2018-12-15T11:13:18.489Z,2.30
2018-12-15T11:15:46.099Z,2.30
2018-12-15T11:18:14.008Z,2.30
2018-12-15T11:20:41.590Z,2.40
2018-12-15T11:23:09.157Z,2.40
2018-12-15T11:25:37.546Z,2.40
2018-12-15T11:28:05.134Z,2.40
2018-12-15T11:30:33.035Z,2.40
2018-12-15T11:33:00.614Z,2.40
2018-12-15T11:35:28.192Z,2.40
2018-12-15T11:37:55.803Z,2.30
2018-12-15T11:40:23.382Z,2.30
2018-12-15T11:42:51.003Z,2.30
2018-12-15T11:45:18.595Z,2.40
2018-12-15T11:47:46.176Z,2.50
2018-12-15T11:50:14.350Z,2.70
2018-12-15T11:52:41.947Z,2.70
2018-12-15T11:55:10.286Z,3.00
2018-12-15T11:57:38.301Z,3.00
2018-12-15T12:00:05.874Z,2.90
2018-12-15T12:02:33.448Z,2.90
2018-12-15T12:05:01.113Z,2.80
2018-12-15T12:07:28.691Z,2.70
2018-12-15T12:09:56.266Z,2.60
2018-12-15T12:12:23.894Z,2.60
2018-12-15T12:14:51.488Z,2.50
2018-12-15T12:17:19.144Z,2.60
2018-12-15T12:19:50.115Z,2.80
2018-12-15T12:22:14.821Z,2.90
2018-12-15T12:24:43.170Z,3.10
2018-12-15T12:27:11.939Z,3.10
2018-12-15T12:29:39.529Z,3.30
2018-12-15T12:32:07.102Z,3.40
2018-12-15T12:34:35.498Z,3.40
2018-12-15T12:37:03.085Z,3.40
2018-12-15T12:39:30.678Z,3.30
2018-12-15T12:41:59.130Z,3.30
2018-12-15T12:44:26.709Z,3.20
2018-12-15T12:46:54.287Z,3.20
2018-12-15T12:49:22.301Z,3.20
2018-12-15T12:51:50.645Z,3.00
2018-12-15T12:54:18.238Z,3.00
2018-12-15T12:56:46.169Z,3.00
2018-12-15T12:59:13.773Z,3.00
2018-12-15T13:01:41.377Z,3.00
2018-12-15T13:04:09.317Z,3.00
2018-12-15T13:06:36.891Z,3.00
2018-12-15T13:09:04.469Z,3.00
2018-12-15T13:11:32.142Z,3.00
2018-12-15T13:13:59.721Z,2.90
2018-12-15T13:16:27.878Z,2.90
2018-12-15T13:18:56.073Z,2.90
2018-12-15T13:21:23.334Z,3.00
2018-12-15T13:23:51.269Z,3.00
2018-12-15T13:26:19.770Z,3.00
2018-12-15T13:28:47.358Z,2.90
2018-12-15T13:31:14.938Z,3.10
2018-12-15T13:33:42.978Z,3.40
2018-12-15T13:36:11.339Z,3.50
2018-12-15T13:38:38.918Z,3.50
2018-12-15T13:41:06.597Z,3.50
2018-12-15T13:43:34.157Z,3.50
2018-12-15T13:46:01.739Z,3.50
2018-12-15T13:48:29.366Z,3.40
2018-12-15T13:50:57.310Z,3.30
2018-12-15T13:53:25.797Z,3.30
2018-12-15T13:55:53.372Z,3.30
2018-12-15T13:58:20.957Z,3.20
2018-12-15T14:00:48.586Z,3.20
2018-12-15T14:03:23.439Z,3.20
2018-12-15T14:05:45.260Z,3.10
2018-12-15T14:08:13.024Z,3.10
2018-12-15T14:10:40.644Z,2.90
2018-12-15T14:13:09.051Z,2.90
2018-12-15T14:15:36.625Z,2.80
2018-12-15T14:18:04.200Z,2.70
2018-12-15T14:20:31.883Z,2.60
2018-12-15T14:22:59.602Z,2.60
2018-12-15T14:25:27.129Z,2.50
2018-12-15T14:27:55.260Z,2.40
2018-12-15T14:30:22.849Z,2.40
2018-12-15T14:32:50.435Z,2.30
2018-12-15T14:35:18.038Z,2.30
2018-12-15T14:37:45.621Z,2.30
2018-12-15T14:40:13.267Z,2.30
2018-12-15T14:42:40.846Z,2.30
2018-12-15T14:45:09.195Z,2.30
2018-12-15T14:47:36.795Z,2.30
2018-12-15T14:50:05.158Z,2.30
2018-12-15T14:52:33.940Z,2.30
2018-12-15T14:55:02.689Z,2.30
2018-12-15T14:57:30.280Z,2.20
2018-12-15T14:59:58.169Z,2.40
2018-12-15T15:02:25.753Z,2.30
2018-12-15T15:04:53.369Z,2.30
2018-12-15T15:07:21.738Z,2.30
2018-12-15T15:09:49.351Z,2.30
2018-12-15T15:12:16.912Z,2.20
2018-12-15T15:14:45.558Z,2.20
2018-12-15T15:17:13.149Z,2.20
2018-12-15T15:19:41.496Z,2.20
2018-12-15T15:22:10.589Z,2.20
2018-12-15T15:24:38.195Z,2.20
2018-12-15T15:27:05.789Z,2.10
2018-12-15T15:29:33.442Z,2.00
2018-12-15T15:32:01.037Z,1.90
2018-12-15T15:34:28.616Z,1.80
2018-12-15T15:36:56.249Z,1.70
2018-12-15T15:39:23.893Z,1.70
2018-12-15T15:41:51.462Z,1.60
2018-12-15T15:44:19.151Z,1.60
2018-12-15T15:46:46.834Z,1.50
2018-12-15T15:49:14.413Z,1.50
2018-12-15T15:51:57.146Z,1.40
2018-12-15T15:54:25.099Z,1.40
2018-12-15T15:56:54.739Z,1.50
2018-12-15T15:59:21.118Z,1.50
2018-12-15T16:01:48.695Z,1.40
2018-12-15T16:04:16.273Z,1.40
2018-12-15T16:06:44.672Z,1.30
2018-12-15T16:09:12.328Z,1.30
2018-12-15T16:11:40.301Z,1.30
2018-12-15T16:14:08.650Z,1.20
2018-12-15T16:16:36.330Z,1.20
2018-12-15T16:19:04.422Z,1.20
2018-12-15T16:21:32.005Z,1.20
2018-12-15T16:24:22.030Z,1.10
2018-12-15T16:26:49.599Z,1.10
2018-12-15T16:29:17.256Z,1.10
2018-12-15T16:31:44.826Z,1.10
2018-12-15T16:34:12.445Z,1.00
2018-12-15T16:36:41.272Z,0.90
2018-12-15T16:39:10.138Z,0.90
2018-12-15T16:41:42.248Z,0.90
2018-12-15T16:44:05.326Z,0.90
2018-12-15T16:46:32.902Z,0.90
2018-12-15T16:49:00.484Z,0.90
2018-12-15T16:51:29.434Z,0.90
2018-12-15T16:53:57.314Z,0.90
2018-12-15T16:56:27.325Z,0.90
2018-12-15T16:58:54.962Z,0.90
2018-12-15T17:01:25.611Z,0.80
2018-12-15T17:03:53.543Z,0.80
2018-12-15T17:06:21.118Z,0.80
2018-12-15T17:08:48.706Z,0.80
2018-12-15T17:11:16.646Z,0.70
2018-12-15T17:13:44.223Z,0.70
2018-12-15T17:16:12.045Z,0.70
2018-12-15T17:18:42.831Z,0.70
2018-12-15T17:21:10.373Z,0.70
2018-12-15T17:23:40.910Z,0.70
2018-12-15T17:26:08.873Z,0.60
2018-12-15T17:28:36.460Z,0.60
2018-12-15T17:31:04.835Z,0.70
2018-12-15T17:33:33.068Z,0.70
2018-12-15T17:36:00.653Z,0.70
2018-12-15T17:38:28.265Z,0.70
2018-12-15T17:40:55.904Z,0.70
2018-12-15T17:43:23.902Z,0.80
2018-12-15T17:45:51.512Z,1.00
2018-12-15T17:48:19.373Z,1.10
2018-12-15T17:50:46.955Z,1.10
2018-12-15T17:53:14.531Z,1.00
2018-12-15T17:55:42.151Z,0.90
2018-12-15T17:58:14.751Z,0.80
2018-12-15T18:00:41.327Z,0.70
2018-12-15T18:03:09.032Z,0.60
2018-12-15T18:05:37.253Z,0.60
2018-12-15T18:08:06.041Z,0.60
2018-12-15T18:10:33.590Z,0.50
2018-12-15T18:13:02.017Z,0.60
2018-12-15T18:15:29.994Z,0.70
2018-12-15T18:17:58.321Z,0.70
2018-12-15T18:20:25.924Z,0.70
2018-12-15T18:22:53.527Z,0.70
2018-12-15T18:25:21.109Z,0.70
2018-12-15T18:27:48.923Z,0.70
2018-12-15T18:30:16.448Z,0.60
2018-12-15T18:32:44.073Z,0.60
2018-12-15T18:35:11.750Z,0.60
2018-12-15T18:37:39.391Z,0.50
2018-12-15T18:40:07.420Z,0.60
2018-12-15T18:42:34.989Z,0.80
2018-12-15T18:45:02.932Z,0.80
2018-12-15T18:47:30.488Z,0.70
2018-12-15T18:49:58.862Z,0.60
2018-12-15T18:52:27.644Z,0.60
2018-12-15T18:54:55.223Z,0.60
2018-12-15T18:57:23.634Z,0.60
2018-12-15T18:59:51.265Z,0.60
2018-12-15T19:02:19.607Z,0.50
2018-12-15T19:04:47.269Z,0.50
2018-12-15T19:07:14.844Z,0.40
2018-12-15T19:09:42.442Z,0.40
2018-12-15T19:12:10.488Z,0.40
2018-12-15T19:14:38.105Z,0.50
2018-12-15T19:17:05.689Z,0.70
2018-12-15T19:19:34.389Z,0.80
2018-12-15T19:22:01.976Z,0.80
2018-12-15T19:24:29.568Z,0.80
2018-12-15T19:26:57.173Z,0.80
2018-12-15T19:29:24.775Z,0.70
2018-12-15T19:31:52.349Z,0.70
2018-12-15T19:34:19.982Z,0.60
2018-12-15T19:36:48.345Z,0.50
2018-12-15T19:39:17.099Z,0.50
2018-12-15T19:41:43.617Z,0.50
2018-12-15T19:44:11.227Z,0.50
2018-12-15T19:46:39.207Z,0.50
2018-12-15T19:49:07.895Z,0.40
2018-12-15T19:51:35.491Z,0.40
2018-12-15T19:54:03.114Z,0.50
2018-12-15T19:56:30.709Z,0.70
2018-12-15T19:58:59.060Z,0.70
2018-12-15T20:01:26.673Z,0.70
2018-12-15T20:03:54.322Z,0.70
2018-12-15T20:06:21.913Z,0.80
2018-12-15T20:08:49.501Z,1.00
2018-12-15T20:11:17.151Z,1.20
2018-12-15T20:13:44.730Z,1.20
2018-12-15T20:16:12.890Z,1.10
2018-12-15T20:18:40.772Z,1.00
2018-12-15T20:21:08.357Z,1.00
2018-12-15T20:23:36.698Z,0.90
2018-12-15T20:26:04.789Z,0.90
2018-12-15T20:28:32.389Z,0.90
2018-12-15T20:31:00.002Z,0.90
2018-12-15T20:33:27.615Z,1.00
2018-12-15T20:35:55.194Z,1.20
2018-12-15T20:38:23.101Z,1.20
2018-12-15T20:40:50.690Z,1.20
2018-12-15T20:43:18.290Z,1.20
2018-12-15T20:45:45.892Z,1.10
2018-12-15T20:48:13.481Z,1.10
2018-12-15T20:50:41.365Z,1.10
2018-12-15T20:53:08.938Z,1.20
2018-12-15T20:55:36.516Z,1.20
2018-12-15T20:58:04.151Z,1.10
2018-12-15T21:00:31.707Z,1.10
2018-12-15T21:02:59.363Z,1.00
2018-12-15T21:05:26.935Z,1.00
2018-12-15T21:07:54.840Z,1.00
2018-12-15T21:10:22.491Z,1.00
2018-12-15T21:12:50.076Z,1.00
2018-12-15T21:15:17.675Z,1.00
2018-12-15T21:17:46.070Z,1.00
2018-12-15T21:20:15.061Z,1.00
2018-12-15T21:22:42.619Z,0.90
2018-12-15T21:25:10.966Z,0.90
2018-12-15T21:27:38.554Z,0.90
2018-12-15T21:30:07.206Z,1.00
2018-12-15T21:32:34.777Z,1.00
2018-12-15T21:35:02.358Z,1.00
2018-12-15T21:37:31.286Z,1.00
2018-12-15T21:39:58.913Z,1.10
2018-12-15T21:42:26.868Z,1.10
2018-12-15T21:44:54.452Z,1.00
2018-12-15T21:47:22.811Z,1.00
2018-12-15T21:49:50.450Z,1.00
2018-12-15T21:52:18.051Z,1.00
2018-12-15T21:54:46.412Z,0.90
2018-12-15T21:57:14.096Z,0.90
2018-12-15T21:59:41.678Z,0.90
2018-12-15T22:02:09.262Z,0.80
2018-12-15T22:04:37.313Z,0.90
2018-12-15T22:07:04.912Z,0.80
2018-12-15T22:09:32.531Z,0.80
2018-12-15T22:12:01.076Z,0.80
2018-12-15T22:14:28.667Z,0.80
2018-12-15T22:16:56.293Z,0.80
2018-12-15T22:19:23.876Z,0.80
2018-12-15T22:21:54.716Z,0.80
2018-12-15T22:24:23.047Z,0.90
2018-12-15T22:26:50.690Z,0.90
2018-12-15T22:29:18.301Z,0.90
2018-12-15T22:31:46.197Z,0.80
2018-12-15T22:34:14.551Z,0.80
2018-12-15T22:36:43.383Z,0.80
2018-12-15T22:39:10.977Z,0.80
2018-12-15T22:41:38.570Z,0.80
2018-12-15T22:44:07.054Z,0.80
2018-12-15T22:46:34.659Z,0.90
2018-12-15T22:49:02.242Z,1.00
2018-12-15T22:51:31.139Z,1.20
2018-12-15T22:53:58.697Z,1.30
2018-12-15T22:56:26.288Z,1.20
2018-12-15T22:58:55.423Z,1.20
2018-12-15T23:01:22.946Z,1.10
2018-12-15T23:03:50.597Z,1.00
2018-12-15T23:06:18.203Z,1.00
2018-12-15T23:08:46.547Z,1.00
2018-12-15T23:11:14.153Z,1.00
2018-12-15T23:13:41.734Z,1.10
2018-12-15T23:16:09.679Z,1.00
2018-12-15T23:18:37.230Z,0.90
2018-12-15T23:21:05.810Z,0.80
2018-12-15T23:23:36.418Z,0.80
2018-12-15T23:26:01.434Z,0.80
2018-12-15T23:28:29.077Z,0.70
2018-12-15T23:30:56.659Z,0.60
2018-12-15T23:33:24.251Z,0.60
2018-12-15T23:35:51.854Z,0.60
2018-12-15T23:38:19.439Z,0.50
2018-12-15T23:40:48.126Z,0.50
2018-12-15T23:43:15.703Z,0.50
2018-12-15T23:45:44.051Z,0.50
2018-12-15T23:48:11.659Z,0.50
2018-12-15T23:50:39.241Z,0.50
2018-12-15T23:53:07.782Z,0.50
2018-12-15T23:55:35.369Z,0.50
2018-12-15T23:58:03.942Z,0.50
